Time;durP1;ratioP1;P1;durP2;ratioP2;P2;SDS_P1;SDS_P2;PMS_P1;PMS_P2;Temp;Humidity;BMP_temperature;BMP_pressure;BME280_temperature;BME280_humidity;BME280_pressure;Samples;Min_cycle;Max_cycle;Signal;HPM_P1;HPM_P2
2021/04/13 00:01:16;;;;;;;21.17;11.50;;;;;;;0.84;89.78;97763.16;4999758;28;20057;-60
2021/04/13 00:03:41;;;;;;;22.30;11.35;;;;;;;0.81;89.61;97762.91;4999509;28;20076;-60
2021/04/13 00:06:08;;;;;;;21.77;11.52;;;;;;;0.80;89.81;97758.63;4979099;28;20042;-61
2021/04/13 00:08:34;;;;;;;22.80;12.15;;;;;;;0.84;89.18;97765.88;4984347;28;20046;-57
2021/04/13 00:11:05;;;;;;;17.67;10.85;;;;;;;0.76;89.66;97764.56;4984543;28;20046;-61
2021/04/13 00:13:31;;;;;;;21.40;10.98;;;;;;;0.63;89.41;97767.03;4983287;28;20372;-57
2021/04/13 00:16:07;;;;;;;21.15;11.57;;;;;;;0.65;89.22;97763.00;4984236;28;20122;-59
2021/04/13 00:18:34;;;;;;;21.05;11.75;;;;;;;0.63;89.80;97773.25;4994885;28;20104;-56
2021/04/13 00:21:05;;;;;;;23.00;11.63;;;;;;;0.66;89.74;97770.00;4983295;28;20038;-59
2021/04/13 00:23:31;;;;;;;21.38;12.07;;;;;;;0.61;89.18;97774.59;4982213;28;20050;-58
2021/04/13 00:26:01;;;;;;;23.45;12.13;;;;;;;0.21;90.15;97769.06;4993035;28;20045;-58
2021/04/13 00:28:36;;;;;;;23.35;12.38;;;;;;;-0.14;92.04;97767.25;4997422;28;20046;-60
2021/04/13 00:31:06;;;;;;;26.35;13.98;;;;;;;-0.35;93.42;97774.50;5003650;28;20038;-59
2021/04/13 00:33:35;;;;;;;29.27;13.48;;;;;;;-0.51;94.36;97765.63;5002002;28;20042;-55
2021/04/13 00:36:12;;;;;;;31.60;15.07;;;;;;;-0.72;95.81;97762.09;4999852;28;20073;-60
2021/04/13 00:38:49;;;;;;;32.50;15.05;;;;;;;-0.73;96.42;97763.97;4984491;28;20046;-58
2021/04/13 00:41:22;;;;;;;32.70;16.33;;;;;;;-0.70;96.78;97763.47;4979847;28;20963;-56
2021/04/13 00:43:51;;;;;;;33.30;16.23;;;;;;;-0.70;96.74;97765.31;4996158;28;20507;-58
2021/04/13 00:46:19;;;;;;;;;;;;;;;-0.68;96.62;97763.19;4997532;28;20052;-61
2021/04/13 00:48:46;;;;;;;31.95;14.70;;;;;;;-0.60;97.00;97762.66;4996946;28;19984;-59
2021/04/13 00:51:19;;;;;;;35.95;15.60;;;;;;;-0.57;96.52;97764.00;4983708;28;20338;-58
2021/04/13 00:53:48;;;;;;;32.58;15.52;;;;;;;-0.62;96.47;97765.59;4982936;28;20100;-59
2021/04/13 00:56:15;;;;;;;34.97;16.02;;;;;;;-0.65;96.37;97766.16;4975829;28;20048;-55
2021/04/13 00:58:45;;;;;;;33.63;15.65;;;;;;;-0.67;96.48;97765.59;4989903;28;20041;-59
2021/04/13 01:01:10;;;;;;;32.35;15.80;;;;;;;-0.73;96.37;97769.38;4992398;28;20597;-60
2021/04/13 01:03:36;;;;;;;32.40;15.00;;;;;;;-0.68;96.67;97761.31;4988100;28;20042;-58
2021/04/13 01:06:02;;;;;;;35.53;15.50;;;;;;;-0.62;96.38;97762.09;4980921;28;20489;-65
2021/04/13 01:08:38;;;;;;;31.92;14.90;;;;;;;-0.47;96.59;97761.31;4961238;28;20042;-58
2021/04/13 01:11:17;;;;;;;31.10;15.05;;;;;;;-0.31;96.14;97768.28;4978457;28;20054;-67
2021/04/13 01:13:45;;;;;;;31.10;14.80;;;;;;;-0.46;95.65;97765.63;4982342;28;20045;-55
2021/04/13 01:16:12;;;;;;;33.97;16.65;;;;;;;-0.45;95.90;97769.91;4976514;28;20034;-57
2021/04/13 01:18:42;;;;;;;32.67;15.48;;;;;;;-0.25;96.02;97761.84;4986650;28;20052;-54
2021/04/13 01:21:27;;;;;;;31.90;15.23;;;;;;;-0.30;95.65;97759.16;4979230;28;20104;-57
2021/04/13 01:23:59;;;;;;;31.30;13.75;;;;;;;-0.40;95.35;97761.84;5002469;28;20042;-57
2021/04/13 01:26:29;;;;;;;29.52;14.57;;;;;;;-0.41;95.40;97766.44;4997445;28;20585;-58
2021/04/13 01:28:55;;;;;;;29.63;14.15;;;;;;;-0.22;95.24;97757.81;5005779;28;20057;-58
2021/04/13 01:31:45;;;;;;;34.80;15.20;;;;;;;-0.14;94.82;97762.66;4965918;28;613507;-62
2021/04/13 01:34:18;;;;;;;29.80;14.90;;;;;;;-0.24;94.89;97766.13;4986671;28;20043;-61
2021/04/13 01:36:50;;;;;;;26.00;13.48;;;;;;;-0.36;94.47;97770.19;4995256;28;20054;-61
2021/04/13 01:39:24;;;;;;;27.98;14.35;;;;;;;-0.17;95.00;97763.19;4979642;28;20157;-57
2021/04/13 01:41:59;;;;;;;28.20;13.80;;;;;;;-0.07;94.06;97767.78;5002483;28;20605;-55
2021/04/13 01:44:50;;;;;;;26.80;13.30;;;;;;;-0.17;93.59;97765.88;4997822;28;20045;-57
2021/04/13 01:47:19;;;;;;;24.55;13.50;;;;;;;-0.34;93.15;97765.34;4983474;28;20042;-54
2021/04/13 01:50:06;;;;;;;23.38;12.98;;;;;;;-0.31;93.17;97768.28;4998281;28;20038;-59
2021/04/13 01:52:37;;;;;;;29.00;13.48;;;;;;;-0.13;93.37;97766.16;4990069;28;20158;-58
2021/04/13 01:55:06;;;;;;;28.80;14.23;;;;;;;-0.22;93.16;97763.19;4983549;28;20137;-64
2021/04/13 01:57:56;;;;;;;25.42;13.13;;;;;;;-0.17;93.22;97773.94;5006284;28;20155;-62
2021/04/13 02:00:31;;;;;;;25.10;12.43;;;;;;;-0.16;92.83;97772.06;5007491;28;20451;-64
2021/04/13 02:03:08;;;;;;;25.67;12.55;;;;;;;-0.12;92.43;97776.66;5019419;28;20045;-57
2021/04/13 02:05:38;;;;;;;22.17;10.95;;;;;;;-0.10;92.35;97768.31;5017646;28;20049;-63
2021/04/13 02:08:16;;;;;;;24.67;12.48;;;;;;;-0.14;91.91;97770.72;5015531;28;20046;-66
2021/04/13 02:10:56;;;;;;;26.13;12.30;;;;;;;-0.14;91.68;97772.63;5000013;28;20046;-62
2021/04/13 02:13:33;;;;;;;20.60;11.93;;;;;;;-0.18;91.37;97775.06;5007554;28;20135;-63
2021/04/13 02:16:11;;;;;;;23.67;12.38;;;;;;;-0.28;91.27;97775.03;5008816;28;20056;-62
2021/04/13 02:18:55;;;;;;;26.42;13.02;;;;;;;-0.52;91.23;97772.88;5001030;28;20046;-63
2021/04/13 02:21:30;;;;;;;24.13;12.07;;;;;;;-0.71;92.09;97777.16;5004344;28;20052;-62
2021/04/13 02:24:00;;;;;;;23.83;12.98;;;;;;;-1.03;93.71;97781.66;5017341;28;20049;-59
2021/04/13 02:26:26;;;;;;;25.98;13.07;;;;;;;-1.16;93.80;97782.16;5010236;28;20042;-61
2021/04/13 02:28:54;;;;;;;25.00;13.32;;;;;;;-1.20;94.00;97779.19;4996783;28;20042;-57
2021/04/13 02:34:14;;;;;;;26.98;13.18;;;;;;;-1.06;94.65;97778.69;4990730;28;20509;-59
2021/04/13 02:36:41;;;;;;;29.73;13.88;;;;;;;-1.05;94.39;97777.63;5001546;28;20486;-59
2021/04/13 02:39:11;;;;;;;27.17;13.55;;;;;;;-1.20;94.34;97776.50;4987571;28;20041;-58
2021/04/13 02:41:54;;;;;;;25.25;13.38;;;;;;;-1.33;94.12;97774.31;4993713;28;20038;-59
2021/04/13 02:44:23;;;;;;;24.75;13.23;;;;;;;-1.32;94.35;97775.13;4995655;28;20502;-59
2021/04/13 02:46:53;;;;;;;25.45;13.35;;;;;;;-1.26;94.32;97771.38;4982175;28;20050;-55
2021/04/13 02:49:20;;;;;;;26.35;13.15;;;;;;;-1.14;94.73;97771.94;4994500;28;20133;-57
2021/04/13 02:51:52;;;;;;;28.65;14.05;;;;;;;-1.28;94.28;97768.94;4997756;28;20136;-58
2021/04/13 02:54:25;;;;;;;26.60;13.32;;;;;;;-1.38;94.71;97767.03;4985817;28;20141;-57
2021/04/13 02:56:58;;;;;;;25.05;12.85;;;;;;;-1.47;94.62;97768.63;4984208;28;20494;-58
2021/04/13 02:59:27;;;;;;;27.38;12.65;;;;;;;-1.48;94.70;97769.66;4982945;28;20644;-58
2021/04/13 03:02:09;;;;;;;27.85;13.90;;;;;;;-1.46;94.96;97761.34;4989716;28;20108;-58
2021/04/13 03:04:40;;;;;;;28.75;13.70;;;;;;;-1.22;95.34;97770.59;4988877;28;20422;-58
2021/04/13 03:07:07;;;;;;;29.70;14.13;;;;;;;-1.04;95.28;97763.91;4995065;28;20092;-60
2021/04/13 03:09:36;;;;;;;30.10;14.38;;;;;;;-1.02;94.92;97767.16;4991089;28;20093;-59
2021/04/13 03:12:06;;;;;;;28.83;14.32;;;;;;;-1.25;94.27;97776.47;4995363;28;20041;-63
2021/04/13 03:14:39;;;;;;;26.92;13.88;;;;;;;-1.36;93.95;97777.53;4993753;28;20481;-58
2021/04/13 03:17:13;;;;;;;27.60;12.60;;;;;;;-1.29;94.13;97770.03;4985164;28;20045;-63
2021/04/13 03:19:41;;;;;;;26.15;13.38;;;;;;;-1.31;93.83;97776.75;4989407;28;20034;-58
2021/04/13 03:22:08;;;;;;;25.25;13.00;;;;;;;-1.50;93.83;97776.38;4975247;28;20053;-58
2021/04/13 03:24:40;;;;;;;26.17;12.52;;;;;;;-1.56;93.57;97779.06;4996128;28;20084;-58
2021/04/13 03:27:14;;;;;;;24.77;13.02;;;;;;;-1.50;93.84;97776.38;4965435;28;20042;-57
2021/04/13 03:29:52;;;;;;;23.40;11.77;;;;;;;-1.33;93.88;97777.00;4991132;28;20137;-57
2021/04/13 03:32:22;;;;;;;25.92;12.98;;;;;;;-1.30;94.06;97781.84;4985768;28;20038;-57
2021/04/13 03:34:48;;;;;;;31.00;13.60;;;;;;;-1.17;93.83;97777.84;5002758;28;20037;-54
2021/04/13 03:37:16;;;;;;;26.48;11.95;;;;;;;-1.08;93.29;97781.66;4991234;28;20596;-57
2021/04/13 03:39:46;;;;;;;24.88;13.10;;;;;;;-1.00;92.32;97780.34;4988297;28;20061;-60
2021/04/13 03:42:17;;;;;;;25.50;12.68;;;;;;;-0.99;92.37;97776.56;4999175;28;20363;-60
2021/04/13 03:44:43;;;;;;;27.58;13.55;;;;;;;-1.08;92.50;97778.16;4988424;28;20089;-58
2021/04/13 03:47:16;;;;;;;25.15;12.80;;;;;;;-1.27;92.06;97781.31;4994430;28;20042;-57
2021/04/13 03:49:44;;;;;;;23.10;11.30;;;;;;;-1.55;91.86;97779.84;4968581;28;20046;-57
2021/04/13 03:52:24;;;;;;;24.63;12.40;;;;;;;-1.57;92.21;97777.44;4980415;28;20045;-56
2021/04/13 03:54:50;;;;;;;24.48;12.35;;;;;;;-1.46;93.18;97769.41;4968439;28;20039;-59
2021/04/13 03:57:29;;;;;;;27.45;13.85;;;;;;;-1.31;93.50;97776.75;4984998;28;20050;-61
2021/04/13 03:59:57;;;;;;;27.30;12.98;;;;;;;-1.39;92.90;97781.56;4997143;28;20145;-55
2021/04/13 04:02:22;;;;;;;26.98;13.05;;;;;;;-1.39;93.44;97776.19;4979040;28;21164;-58
2021/04/13 04:04:48;;;;;;;25.92;13.00;;;;;;;-1.60;93.35;97777.16;4995181;28;20054;-61
2021/04/13 04:07:27;;;;;;;29.55;13.70;;;;;;;-1.61;93.94;97778.22;4986526;28;20089;-57
2021/04/13 04:09:52;;;;;;;57.15;15.07;;;;;;;-1.76;93.75;97771.69;4985886;28;20131;-57
2021/04/13 04:12:28;;;;;;;49.58;14.82;;;;;;;-1.92;93.60;97776.16;4980694;28;20454;-60
2021/04/13 04:15:08;;;;;;;137.10;15.23;;;;;;;-2.13;94.86;97772.53;5000648;28;20045;-58
2021/04/13 04:17:45;;;;;;;111.68;14.80;;;;;;;-2.51;96.14;97778.97;5014015;28;20065;-58
2021/04/13 04:20:12;;;;;;;101.20;15.48;;;;;;;-2.65;97.22;97783.91;4992737;28;20077;-59
2021/04/13 04:22:53;;;;;;;45.35;14.23;;;;;;;-2.65;97.40;97783.13;4985847;28;20074;-59
2021/04/13 04:25:41;;;;;;;58.03;14.10;;;;;;;-2.57;97.58;97780.78;4981606;28;20133;-60
2021/04/13 04:28:16;;;;;;;33.22;14.48;;;;;;;-2.32;97.92;97782.06;4987230;28;20050;-61
2021/04/13 04:30:42;;;;;;;48.75;15.63;;;;;;;-2.41;97.91;97791.63;4996914;28;20137;-56
2021/04/13 04:33:37;;;;;;;34.22;14.90;;;;;;;-2.38;97.32;97791.13;4990386;28;20453;-57
2021/04/13 04:36:24;;;;;;;32.33;15.30;;;;;;;-2.08;97.69;97795.94;4982898;28;20501;-63
2021/04/13 04:38:50;;;;;;;38.92;17.15;;;;;;;-2.08;97.79;97797.81;5003182;28;20072;-61
2021/04/13 04:41:15;;;;;;;36.63;17.08;;;;;;;-2.04;97.42;97801.59;4999288;28;20041;-59
2021/04/13 04:43:45;;;;;;;37.50;15.32;;;;;;;-1.90;97.77;97800.06;4995020;28;20101;-59
2021/04/13 04:46:28;;;;;;;35.15;16.30;;;;;;;-1.86;97.61;97805.75;4993364;28;20088;-65
2021/04/13 04:49:11;;;;;;;37.22;15.95;;;;;;;-1.63;97.92;97807.22;5007875;28;20426;-60
2021/04/13 04:51:38;;;;;;;39.08;16.75;;;;;;;-1.50;97.38;97811.31;5005156;28;20038;-62
2021/04/13 04:54:04;;;;;;;32.00;15.60;;;;;;;-1.39;97.28;97813.81;4985901;28;20064;-63
2021/04/13 04:56:30;;;;;;;32.70;15.27;;;;;;;-1.29;97.24;97825.69;4985075;28;20070;-56
2021/04/13 04:58:56;;;;;;;33.92;13.93;;;;;;;-1.50;95.58;97822.06;4993618;28;20042;-58
2021/04/13 05:01:21;;;;;;;27.33;13.35;;;;;;;-1.58;95.06;97831.44;4996343;28;21231;-60
2021/04/13 05:03:47;;;;;;;32.17;14.45;;;;;;;-1.37;94.81;97826.97;4972591;28;20111;-56
2021/04/13 05:06:13;;;;;;;42.85;14.32;;;;;;;-1.25;94.49;97832.13;4987366;28;20046;-53
2021/04/13 05:08:38;;;;;;;127.22;15.50;;;;;;;-1.67;93.97;97828.44;5002257;28;20050;-59
2021/04/13 05:11:04;;;;;;;86.25;15.45;;;;;;;-2.24;96.00;97829.09;4995763;28;20099;-64
2021/04/13 05:13:30;;;;;;;86.30;16.92;;;;;;;-2.34;96.69;97832.47;5004441;28;20072;-57
2021/04/13 05:15:57;;;;;;;88.28;18.52;;;;;;;-2.37;97.96;97838.38;4995658;28;20430;-59
2021/04/13 05:18:22;;;;;;;74.78;18.02;;;;;;;-2.13;98.24;97844.19;4995229;28;20054;-56
2021/04/13 05:20:48;;;;;;;91.55;20.65;;;;;;;-1.98;98.45;97846.19;5004474;28;20135;-58
2021/04/13 05:23:14;;;;;;;61.40;19.70;;;;;;;-1.83;98.58;97848.19;5000218;28;20050;-56
2021/04/13 05:25:39;;;;;;;109.50;20.38;;;;;;;-2.13;98.31;97849.56;5012746;28;20072;-59
2021/04/13 05:28:05;;;;;;;94.15;20.88;;;;;;;-2.13;98.67;97847.69;5011851;28;20042;-59
2021/04/13 05:30:30;;;;;;;132.70;20.30;;;;;;;-2.03;99.00;97852.34;4996136;28;20039;-60
2021/04/13 05:32:56;;;;;;;115.63;22.25;;;;;;;-1.77;99.44;97850.66;5005187;28;20046;-59
2021/04/13 05:35:23;;;;;;;99.53;22.20;;;;;;;-1.80;99.21;97853.03;5003650;28;20207;-61
2021/04/13 05:37:49;;;;;;;125.15;22.00;;;;;;;-1.97;98.90;97848.63;5017922;28;20052;-60
2021/04/13 05:40:19;;;;;;;105.05;21.90;;;;;;;-1.90;98.91;97852.97;5012582;28;20058;-61
2021/04/13 05:42:45;;;;;;;82.40;20.48;;;;;;;-1.85;98.83;97861.88;5017814;28;20068;-61
2021/04/13 05:45:13;;;;;;;74.22;20.73;;;;;;;-1.75;98.80;97850.38;4990577;28;20042;-61
2021/04/13 05:47:39;;;;;;;79.00;21.55;;;;;;;-1.73;98.77;97850.94;5006420;28;20045;-61
2021/04/13 05:50:09;;;;;;;48.60;21.52;;;;;;;-1.36;98.96;97858.16;5007360;28;20037;-60
2021/04/13 05:52:34;;;;;;;59.50;21.75;;;;;;;-1.25;98.19;97859.81;4988258;28;20534;-60
2021/04/13 05:55:00;;;;;;;46.72;20.40;;;;;;;-0.36;97.75;97861.72;4981362;28;20050;-59
2021/04/13 05:57:29;;;;;;;45.08;20.00;;;;;;;0.41;95.38;97859.81;4981147;28;20042;-59
2021/04/13 05:59:56;;;;;;;;;;;;;;;0.16;89.74;97860.66;4990783;28;20130;-59
2021/04/13 06:02:21;;;;;;;30.52;15.80;;;;;;;0.61;87.71;97858.97;4977126;28;21479;-59
2021/04/13 06:04:52;;;;;;;24.15;14.00;;;;;;;0.66;87.62;97863.56;4987297;28;20049;-60
2021/04/13 06:07:18;;;;;;;24.65;12.60;;;;;;;1.85;85.39;97851.91;4988948;28;20045;-59
2021/04/13 06:09:43;;;;;;;17.98;11.15;;;;;;;3.67;77.34;97858.59;4999550;28;20552;-59
2021/04/13 06:12:10;;;;;;;16.10;9.48;;;;;;;6.09;64.50;97849.44;4993711;28;20406;-60
2021/04/13 06:14:35;;;;;;;14.82;8.93;;;;;;;3.40;72.65;97860.09;4993315;28;20066;-60
2021/04/13 06:17:01;;;;;;;15.68;9.05;;;;;;;3.28;73.04;97859.69;4982138;28;20484;-60
2021/04/13 06:19:26;;;;;;;14.82;8.88;;;;;;;4.60;70.28;97860.66;4975933;28;20043;-59
2021/04/13 06:21:53;;;;;;;13.93;9.32;;;;;;;3.48;70.92;97865.94;4982476;28;20038;-59
2021/04/13 06:24:19;;;;;;;14.32;9.55;;;;;;;3.39;74.90;97879.31;4980696;28;20077;-56
2021/04/13 06:26:44;;;;;;;15.05;9.75;;;;;;;3.31;75.41;97866.41;4983584;28;20102;-60
2021/04/13 06:29:09;;;;;;;19.88;12.63;;;;;;;3.91;72.34;97868.59;4990797;28;20050;-58
2021/04/13 06:31:35;;;;;;;18.20;10.57;;;;;;;2.63;76.67;97871.00;4988701;28;20097;-60
2021/04/13 06:34:01;;;;;;;16.98;10.27;;;;;;;3.82;73.86;97871.16;4992938;28;20382;-59
2021/04/13 06:36:28;;;;;;;13.60;9.00;;;;;;;3.04;73.42;97876.78;4988596;28;20053;-61
2021/04/13 06:38:58;;;;;;;16.08;9.88;;;;;;;2.63;76.63;97879.09;4997888;28;20394;-60
2021/04/13 06:41:42;;;;;;;15.45;9.65;;;;;;;4.71;69.82;97877.56;4995639;28;20324;-59
2021/04/13 06:44:29;;;;;;;13.40;9.20;;;;;;;6.03;65.26;97872.41;4988851;28;20077;-60
2021/04/13 06:47:18;;;;;;;12.68;8.20;;;;;;;7.13;60.15;97867.41;4990838;28;20422;-61
2021/04/13 06:49:50;;;;;;;;;;;;;;;4.83;66.82;97875.16;4989746;28;20052;-61
2021/04/13 06:52:19;;;;;;;13.93;8.48;;;;;;;6.07;63.95;97866.03;4994273;28;20020;-59
2021/04/13 06:55:02;;;;;;;12.38;8.35;;;;;;;7.62;59.10;97863.53;4992815;28;20050;-60
2021/04/13 06:57:41;;;;;;;14.18;9.77;;;;;;;7.54;58.04;97856.13;4990432;28;20065;-60
2021/04/13 07:00:44;;;;;;;18.10;11.18;;;;;;;6.64;62.16;97845.59;4999873;28;20054;-61
2021/04/13 07:03:40;;;;;;;35.25;19.40;;;;;;;4.98;69.61;97855.84;4989102;28;20065;-60
2021/04/13 07:06:33;;;;;;;13.88;10.30;;;;;;;8.65;56.91;97848.59;4982534;28;20045;-61
2021/04/13 07:09:06;;;;;;;20.40;16.27;;;;;;;7.86;57.03;97848.63;4997014;28;20061;-61
2021/04/13 07:11:37;;;;;;;13.32;9.38;;;;;;;8.18;56.48;97858.25;4980717;28;20062;-62
2021/04/13 07:14:15;;;;;;;14.63;9.18;;;;;;;10.31;51.30;97851.13;4987817;28;20413;-61
2021/04/13 07:16:56;;;;;;;14.30;8.40;;;;;;;10.13;51.19;97837.56;4989985;28;20050;-61
2021/04/13 07:19:34;;;;;;;12.93;9.20;;;;;;;7.26;57.72;97844.72;4990274;28;20073;-61
2021/04/13 07:22:13;;;;;;;19.13;15.00;;;;;;;7.41;57.81;97848.91;5002836;28;20133;-61
2021/04/13 07:24:46;;;;;;;12.93;9.23;;;;;;;10.82;50.06;97838.03;5000987;28;20418;-60
2021/04/13 07:27:17;;;;;;;13.70;9.38;;;;;;;10.27;49.32;97848.25;4991758;28;20808;-61
2021/04/13 07:29:47;;;;;;;13.00;8.45;;;;;;;9.88;50.58;97846.78;4985839;28;20057;-61
2021/04/13 07:32:16;;;;;;;13.20;8.80;;;;;;;10.67;48.85;97852.38;4993604;28;20049;-60
2021/04/13 07:34:44;;;;;;;13.43;9.18;;;;;;;8.01;55.59;97859.09;4998502;28;20426;-59
2021/04/13 07:37:20;;;;;;;16.30;12.15;;;;;;;7.53;57.88;97854.56;4984565;28;20050;-60
2021/04/13 07:39:50;;;;;;;17.70;12.07;;;;;;;6.46;61.73;97856.41;4981328;28;20049;-60
2021/04/13 07:42:24;;;;;;;16.15;10.95;;;;;;;7.07;60.88;97861.31;4975135;28;20042;-61
2021/04/13 07:45:15;;;;;;;19.73;12.18;;;;;;;8.61;56.31;97854.69;4991790;28;20507;-61
2021/04/13 07:48:08;;;;;;;17.02;10.48;;;;;;;8.40;55.27;97853.75;5000584;28;20046;-59
2021/04/13 07:51:00;;;;;;;16.67;10.50;;;;;;;8.99;53.72;97856.66;5002804;28;20121;-60
2021/04/13 07:53:48;;;;;;;17.15;10.30;;;;;;;9.91;52.99;97848.88;4995553;28;20042;-59
2021/04/13 07:56:22;;;;;;;17.88;9.95;;;;;;;11.07;47.95;97846.28;4998233;28;20046;-60
2021/04/13 07:58:50;;;;;;;17.55;10.52;;;;;;;10.85;48.11;97842.03;5003214;28;20132;-61
2021/04/13 08:01:17;;;;;;;16.00;10.80;;;;;;;11.03;47.97;97842.63;4997277;28;20038;-61
2021/04/13 08:03:42;;;;;;;15.38;10.18;;;;;;;8.80;53.65;97853.50;5001745;28;20116;-60
2021/04/13 08:06:26;;;;;;;16.10;10.02;;;;;;;10.02;50.40;97841.84;4995844;28;20050;-59
2021/04/13 08:09:23;;;;;;;13.50;9.55;;;;;;;12.17;45.94;97850.03;5000680;28;20038;-56
2021/04/13 08:12:08;;;;;;;14.60;9.93;;;;;;;9.35;51.48;97854.56;5001110;28;20034;-61
2021/04/13 08:14:37;;;;;;;13.52;8.57;;;;;;;12.58;46.74;97854.31;5000159;28;20077;-60
2021/04/13 08:17:13;;;;;;;15.40;8.52;;;;;;;14.24;41.93;97853.53;5001325;28;20061;-60
2021/04/13 08:19:40;;;;;;;13.93;8.57;;;;;;;10.94;48.15;97847.41;5005238;28;20092;-62
2021/04/13 08:22:10;;;;;;;14.02;10.52;;;;;;;7.22;56.37;97850.00;4999305;28;20033;-62
2021/04/13 08:24:46;;;;;;;14.85;9.80;;;;;;;7.16;56.77;97847.72;5004063;28;20065;-62
2021/04/13 08:27:33;;;;;;;14.07;9.27;;;;;;;9.40;50.74;97848.06;4998584;28;20052;-62
2021/04/13 08:30:08;;;;;;;15.63;10.63;;;;;;;6.72;56.82;97858.44;4997511;28;20053;-61
2021/04/13 08:32:51;;;;;;;14.98;9.88;;;;;;;6.28;58.25;97851.94;5002773;28;20046;-61
2021/04/13 08:35:45;;;;;;;24.35;14.68;;;;;;;6.24;57.16;97862.63;4991091;28;20038;-61
2021/04/13 08:38:34;;;;;;;13.77;8.98;;;;;;;6.29;57.74;97859.78;4990196;28;20054;-60
2021/04/13 08:41:22;;;;;;;15.93;9.02;;;;;;;7.90;53.65;97862.44;5011774;28;20045;-61
2021/04/13 08:43:58;;;;;;;14.35;7.80;;;;;;;10.39;47.17;97852.19;5008029;28;20057;-60
2021/04/13 08:46:47;;;;;;;14.57;8.80;;;;;;;11.23;44.30;97855.41;4989756;28;20042;-61
2021/04/13 08:49:35;;;;;;;12.00;7.13;;;;;;;6.64;51.26;97859.19;4994295;28;20042;-59
2021/04/13 08:52:16;;;;;;;16.27;8.57;;;;;;;8.71;49.84;97858.19;4994013;28;20046;-60
2021/04/13 08:54:49;;;;;;;14.32;8.75;;;;;;;10.09;45.35;97844.84;4987432;28;20046;-58
2021/04/13 08:57:31;;;;;;;14.40;8.85;;;;;;;8.42;49.02;97857.75;4979683;28;20152;-59
2021/04/13 08:59:58;;;;;;;18.20;10.00;;;;;;;7.26;53.28;97856.41;4985088;28;20042;-60
2021/04/13 09:02:27;;;;;;;15.30;9.68;;;;;;;7.65;52.89;97862.09;4986726;28;20115;-59
2021/04/13 09:05:03;;;;;;;14.57;9.50;;;;;;;8.11;51.40;97859.88;4985475;28;20100;-60
2021/04/13 09:07:38;;;;;;;12.27;8.32;;;;;;;10.66;44.63;97850.78;4980759;28;20128;-59
2021/04/13 09:10:27;;;;;;;12.93;8.45;;;;;;;11.06;43.70;97847.44;4991922;28;20049;-60
2021/04/13 09:13:15;;;;;;;14.00;8.52;;;;;;;10.76;46.28;97855.81;4995187;28;20038;-58
2021/04/13 09:15:56;;;;;;;15.90;9.27;;;;;;;6.25;55.32;97866.19;5002736;28;20045;-59
2021/04/13 09:18:37;;;;;;;15.18;8.73;;;;;;;7.49;53.21;97850.84;4993603;28;20137;-61
2021/04/13 09:21:06;;;;;;;17.45;8.80;;;;;;;9.65;45.24;97855.34;4994276;28;20093;-60
2021/04/13 09:23:48;;;;;;;14.23;8.73;;;;;;;6.90;52.08;97853.88;4983783;28;20137;-61
2021/04/13 09:26:38;;;;;;;15.07;7.78;;;;;;;7.19;52.02;97852.53;4977959;28;20046;-61
2021/04/13 09:29:06;;;;;;;14.60;8.27;;;;;;;7.57;48.20;97858.22;4985443;28;20035;-60
2021/04/13 09:31:46;;;;;;;12.85;7.88;;;;;;;7.20;52.97;97851.41;4983654;28;20302;-60
2021/04/13 09:34:31;;;;;;;13.35;8.27;;;;;;;5.71;55.73;97861.41;4965467;28;20038;-59
2021/04/13 09:37:21;;;;;;;13.05;8.20;;;;;;;5.34;58.62;97867.91;4987276;28;20061;-61
2021/04/13 09:40:40;;;;;;;13.10;7.18;;;;;;;5.45;54.65;97855.72;4982589;28;20467;-61
2021/04/13 09:43:33;;;;;;;24.98;8.88;;;;;;;4.81;56.73;97854.84;4905208;29;20099;-60
2021/04/13 09:46:00;;;;;;;14.70;7.82;;;;;;;4.50;55.61;97848.09;5005037;28;20490;-58
2021/04/13 09:48:54;;;;;;;15.52;8.65;;;;;;;5.20;56.80;97845.38;5006721;28;20132;-59
2021/04/13 09:51:28;;;;;;;13.20;7.95;;;;;;;5.09;57.69;97848.31;4966629;28;20038;-59
2021/04/13 09:54:07;;;;;;;13.85;7.35;;;;;;;5.31;55.20;97838.63;5001735;28;20076;-60
2021/04/13 09:57:09;;;;;;;16.53;8.03;;;;;;;5.32;54.37;97842.97;4986904;28;20529;-59
2021/04/13 09:59:56;;;;;;;16.42;8.43;;;;;;;5.77;55.11;97840.34;4982542;28;20774;-61
2021/04/13 10:02:45;;;;;;;9.48;6.35;;;;;;;6.40;52.41;97835.84;4978291;28;20082;-62
2021/04/13 10:05:14;;;;;;;9.40;5.68;;;;;;;6.93;49.97;97842.34;4979836;28;20041;-60
2021/04/13 10:08:15;;;;;;;9.50;5.60;;;;;;;7.36;49.38;97830.75;4971692;28;20041;-61
2021/04/13 10:11:09;;;;;;;10.35;5.60;;;;;;;7.12;47.75;97831.19;4990012;28;20042;-62
2021/04/13 10:13:59;;;;;;;8.43;5.20;;;;;;;7.40;48.00;97831.75;4989733;28;20046;-62
2021/04/13 10:16:34;;;;;;;11.02;6.15;;;;;;;7.18;49.35;97831.84;4977388;28;20042;-59
2021/04/13 10:19:24;;;;;;;8.30;5.10;;;;;;;7.41;47.53;97832.56;4982380;28;20062;-60
2021/04/13 10:21:55;;;;;;;;;;;;;;;7.72;47.84;97837.09;4991961;28;20038;-60
2021/04/13 10:24:52;;;;;;;8.65;4.60;;;;;;;8.19;46.62;97832.59;4997234;28;19913;-59
2021/04/13 10:27:54;;;;;;;8.63;5.18;;;;;;;8.60;44.59;97825.75;4982698;28;20079;-60
2021/04/13 10:30:26;;;;;;;11.13;5.50;;;;;;;8.80;44.18;97834.38;4984963;28;20057;-58
2021/04/13 10:33:03;;;;;;;7.78;4.32;;;;;;;8.91;44.31;97832.91;5001420;28;20050;-59
2021/04/13 10:35:38;;;;;;;6.63;4.47;;;;;;;9.04;42.53;97824.78;4998580;28;20061;-58
2021/04/13 10:38:40;;;;;;;11.10;6.60;;;;;;;8.84;47.98;97824.41;4981043;28;20058;-59
2021/04/13 10:41:12;;;;;;;12.70;7.78;;;;;;;8.09;53.01;97829.38;4987769;28;20038;-59
2021/04/13 10:44:02;;;;;;;14.30;8.40;;;;;;;7.25;56.29;97821.28;4996234;28;20042;-58
2021/04/13 10:46:50;;;;;;;15.65;8.00;;;;;;;7.50;56.51;97824.41;4995563;28;20045;-59
2021/04/13 10:49:32;;;;;;;11.73;7.78;;;;;;;6.87;57.67;97817.16;4994876;28;20126;-58
2021/04/13 10:52:13;;;;;;;10.45;5.88;;;;;;;6.99;56.58;97819.31;4983162;28;20054;-59
2021/04/13 10:54:52;;;;;;;11.90;6.45;;;;;;;6.90;56.60;97810.31;4987543;28;20057;-60
2021/04/13 10:57:42;;;;;;;13.35;7.78;;;;;;;6.94;57.27;97814.00;4988931;28;20522;-60
2021/04/13 11:00:27;;;;;;;12.10;6.38;;;;;;;7.28;55.90;97807.84;4993982;28;20141;-60
2021/04/13 11:03:43;;;;;;;16.80;7.03;;;;;;;7.90;54.19;97803.22;4982784;28;20070;-60
2021/04/13 11:06:17;;;;;;;11.68;5.60;;;;;;;8.39;53.36;97811.16;4985899;28;20049;-59
2021/04/13 11:09:01;;;;;;;9.85;5.30;;;;;;;9.05;47.07;97810.81;4984760;28;20093;-57
2021/04/13 11:12:03;;;;;;;8.68;5.10;;;;;;;9.08;45.12;97801.94;4991310;28;20042;-58
2021/04/13 11:14:53;;;;;;;8.77;4.78;;;;;;;8.48;47.44;97819.38;4997732;28;20597;-57
2021/04/13 11:17:43;;;;;;;6.93;4.50;;;;;;;8.21;47.77;97811.22;4997334;28;20038;-56
2021/04/13 11:20:15;;;;;;;7.70;4.68;;;;;;;7.68;49.56;97808.84;5006023;28;20038;-59
2021/04/13 11:23:19;;;;;;;8.93;5.10;;;;;;;7.40;49.97;97809.13;5008650;28;20096;-60
2021/04/13 11:26:23;;;;;;;9.95;5.15;;;;;;;6.69;53.47;97824.47;5002800;28;20073;-59
2021/04/13 11:29:26;;;;;;;9.90;5.20;;;;;;;6.44;53.70;97819.69;5001712;28;20060;-60
2021/04/13 11:32:26;;;;;;;6.90;4.80;;;;;;;6.25;56.59;97823.44;5000676;28;20042;-59
2021/04/13 11:35:39;;;;;;;6.35;4.38;;;;;;;6.17;58.26;97829.63;4975709;28;20124;-57
2021/04/13 11:38:32;;;;;;;14.45;6.15;;;;;;;6.21;58.15;97825.19;4900963;29;20058;-59
2021/04/13 11:41:15;;;;;;;11.18;6.55;;;;;;;5.95;59.44;97827.69;4981485;28;20145;-58
2021/04/13 11:44:06;;;;;;;8.15;5.35;;;;;;;6.06;57.47;97823.63;4982989;28;20079;-60
2021/04/13 11:46:54;;;;;;;7.20;5.13;;;;;;;5.91;57.91;97830.22;4978375;28;20149;-59
2021/04/13 11:49:22;;;;;;;9.70;6.20;;;;;;;5.86;59.42;97830.34;5013108;23;20054;-58
2021/04/13 11:52:04;;;;;;;9.25;5.45;;;;;;;5.98;59.73;97824.38;5032769;28;20072;-62
2021/04/13 11:54:35;;;;;;;33.63;14.70;;;;;;;5.85;57.30;97827.91;5036916;28;20037;-59
2021/04/13 11:57:10;;;;;;;13.07;6.15;;;;;;;5.69;57.19;97836.44;5024804;28;20520;-59
2021/04/13 11:59:35;;;;;;;6.22;4.55;;;;;;;6.11;57.21;97837.09;5024254;28;20126;-59
2021/04/13 12:02:29;;;;;;;15.93;8.00;;;;;;;5.50;57.45;97835.78;5025382;28;20049;-60
2021/04/13 12:04:56;;;;;;;8.77;4.75;;;;;;;5.68;56.42;97842.19;5024480;28;20048;-60
2021/04/13 12:07:48;;;;;;;8.05;4.80;;;;;;;6.27;52.55;97834.03;5021453;28;20413;-61
2021/04/13 12:10:34;;;;;;;11.23;5.47;;;;;;;6.85;51.29;97837.69;5020180;28;20038;-59